sensor_id;sensor_type;location;lat;lon;timestamp;P1;durP1;ratioP1;P2;durP2;ratioP2
80332;SDS011;69652;51.864;-2.246;2024-01-27T00:01:34;17.52;;;5.32;;
80332;SDS011;69652;51.864;-2.246;2024-01-27T00:04:00;17.85;;;5.55;;
80332;SDS011;69652;51.864;-2.246;2024-01-27T00:06:26;17.05;;;6.95;;
80332;SDS011;69652;51.864;-2.246;2024-01-27T00:08:52;15.55;;;4.35;;
80332;SDS011;69652;51.864;-2.246;2024-01-27T00:11:18;16.38;;;5.70;;
80332;SDS011;69652;51.864;-2.246;2024-01-27T00:13:44;21.95;;;9.95;;
80332;SDS011;69652;51.864;-2.246;2024-01-27T00:16:10;15.80;;;7.38;;
80332;SDS011;69652;51.864;-2.246;2024-01-27T00:18:36;19.52;;;7.63;;
80332;SDS011;69652;51.864;-2.246;2024-01-27T00:21:02;24.88;;;12.27;;
80332;SDS011;69652;51.864;-2.246;2024-01-27T00:23:28;35.15;;;12.88;;
80332;SDS011;69652;51.864;-2.246;2024-01-27T00:25:53;26.52;;;13.18;;
80332;SDS011;69652;51.864;-2.246;2024-01-27T00:28:19;19.55;;;8.60;;
80332;SDS011;69652;51.864;-2.246;2024-01-27T00:30:45;20.08;;;6.70;;
80332;SDS011;69652;51.864;-2.246;2024-01-27T00:33:10;24.52;;;8.63;;
80332;SDS011;69652;51.864;-2.246;2024-01-27T00:35:36;22.85;;;10.27;;
80332;SDS011;69652;51.864;-2.246;2024-01-27T00:38:02;17.75;;;8.20;;
80332;SDS011;69652;51.864;-2.246;2024-01-27T00:40:28;18.95;;;6.68;;
80332;SDS011;69652;51.864;-2.246;2024-01-27T00:42:53;19.58;;;7.13;;
80332;SDS011;69652;51.864;-2.246;2024-01-27T00:45:19;20.42;;;9.48;;
80332;SDS011;69652;51.864;-2.246;2024-01-27T00:47:49;20.60;;;9.18;;
80332;SDS011;69652;51.864;-2.246;2024-01-27T00:50:15;18.77;;;7.83;;
80332;SDS011;69652;51.864;-2.246;2024-01-27T00:52:41;21.38;;;11.35;;
80332;SDS011;69652;51.864;-2.246;2024-01-27T00:55:07;19.92;;;10.18;;
80332;SDS011;69652;51.864;-2.246;2024-01-27T00:57:36;17.50;;;8.60;;
80332;SDS011;69652;51.864;-2.246;2024-01-27T01:00:05;27.00;;;14.00;;
80332;SDS011;69652;51.864;-2.246;2024-01-27T01:02:33;14.70;;;4.95;;
80332;SDS011;69652;51.864;-2.246;2024-01-27T01:04:58;14.60;;;4.95;;
80332;SDS011;69652;51.864;-2.246;2024-01-27T01:07:24;12.40;;;4.43;;
80332;SDS011;69652;51.864;-2.246;2024-01-27T01:09:50;19.83;;;7.82;;
80332;SDS011;69652;51.864;-2.246;2024-01-27T01:12:15;14.13;;;6.15;;
80332;SDS011;69652;51.864;-2.246;2024-01-27T01:14:42;14.85;;;6.18;;
80332;SDS011;69652;51.864;-2.246;2024-01-27T01:17:08;15.38;;;6.75;;
80332;SDS011;69652;51.864;-2.246;2024-01-27T01:19:34;21.45;;;5.32;;
80332;SDS011;69652;51.864;-2.246;2024-01-27T01:21:59;12.00;;;4.45;;
80332;SDS011;69652;51.864;-2.246;2024-01-27T01:24:25;22.30;;;11.15;;
80332;SDS011;69652;51.864;-2.246;2024-01-27T01:26:51;19.25;;;8.18;;
80332;SDS011;69652;51.864;-2.246;2024-01-27T01:29:16;14.85;;;5.10;;
80332;SDS011;69652;51.864;-2.246;2024-01-27T01:31:42;10.38;;;4.43;;
80332;SDS011;69652;51.864;-2.246;2024-01-27T01:34:08;15.32;;;4.75;;
80332;SDS011;69652;51.864;-2.246;2024-01-27T01:36:34;12.77;;;4.00;;
80332;SDS011;69652;51.864;-2.246;2024-01-27T01:38:59;16.17;;;7.32;;
80332;SDS011;69652;51.864;-2.246;2024-01-27T01:41:25;16.15;;;6.60;;
80332;SDS011;69652;51.864;-2.246;2024-01-27T01:43:51;24.85;;;6.60;;
80332;SDS011;69652;51.864;-2.246;2024-01-27T01:46:17;21.38;;;6.18;;
80332;SDS011;69652;51.864;-2.246;2024-01-27T01:48:43;17.48;;;4.93;;
80332;SDS011;69652;51.864;-2.246;2024-01-27T01:51:09;14.77;;;4.13;;
80332;SDS011;69652;51.864;-2.246;2024-01-27T01:53:35;11.52;;;4.47;;
80332;SDS011;69652;51.864;-2.246;2024-01-27T01:56:01;11.80;;;3.40;;
80332;SDS011;69652;51.864;-2.246;2024-01-27T01:58:28;11.75;;;4.07;;
80332;SDS011;69652;51.864;-2.246;2024-01-27T02:00:59;15.07;;;3.97;;
80332;SDS011;69652;51.864;-2.246;2024-01-27T02:03:28;15.13;;;5.05;;
80332;SDS011;69652;51.864;-2.246;2024-01-27T02:05:54;16.20;;;4.97;;
80332;SDS011;69652;51.864;-2.246;2024-01-27T02:08:20;12.52;;;4.25;;
80332;SDS011;69652;51.864;-2.246;2024-01-27T02:10:46;21.90;;;5.40;;
80332;SDS011;69652;51.864;-2.246;2024-01-27T02:13:21;13.57;;;4.90;;
80332;SDS011;69652;51.864;-2.246;2024-01-27T02:15:48;15.77;;;3.78;;
80332;SDS011;69652;51.864;-2.246;2024-01-27T02:18:15;13.25;;;4.25;;
80332;SDS011;69652;51.864;-2.246;2024-01-27T02:20:41;12.02;;;3.72;;
80332;SDS011;69652;51.864;-2.246;2024-01-27T02:23:07;14.25;;;6.15;;
80332;SDS011;69652;51.864;-2.246;2024-01-27T02:25:33;13.30;;;4.28;;
80332;SDS011;69652;51.864;-2.246;2024-01-27T02:28:00;12.05;;;4.88;;
80332;SDS011;69652;51.864;-2.246;2024-01-27T02:30:28;12.43;;;5.38;;
80332;SDS011;69652;51.864;-2.246;2024-01-27T02:32:55;16.98;;;5.07;;
80332;SDS011;69652;51.864;-2.246;2024-01-27T02:35:21;12.45;;;3.95;;
80332;SDS011;69652;51.864;-2.246;2024-01-27T02:37:47;11.65;;;4.07;;
80332;SDS011;69652;51.864;-2.246;2024-01-27T02:40:12;11.18;;;2.88;;
80332;SDS011;69652;51.864;-2.246;2024-01-27T02:42:39;13.43;;;4.50;;
80332;SDS011;69652;51.864;-2.246;2024-01-27T02:45:09;14.30;;;4.10;;
80332;SDS011;69652;51.864;-2.246;2024-01-27T02:47:35;10.38;;;4.65;;
80332;SDS011;69652;51.864;-2.246;2024-01-27T02:50:00;13.05;;;3.35;;
80332;SDS011;69652;51.864;-2.246;2024-01-27T02:52:26;9.75;;;3.25;;
80332;SDS011;69652;51.864;-2.246;2024-01-27T02:54:52;9.32;;;3.45;;
80332;SDS011;69652;51.864;-2.246;2024-01-27T02:57:19;7.38;;;2.75;;
80332;SDS011;69652;51.864;-2.246;2024-01-27T02:59:47;11.27;;;3.53;;
80332;SDS011;69652;51.864;-2.246;2024-01-27T03:02:14;7.85;;;2.20;;
80332;SDS011;69652;51.864;-2.246;2024-01-27T03:04:40;13.35;;;3.08;;
80332;SDS011;69652;51.864;-2.246;2024-01-27T03:07:06;10.30;;;3.45;;
80332;SDS011;69652;51.864;-2.246;2024-01-27T03:09:32;12.60;;;3.65;;
80332;SDS011;69652;51.864;-2.246;2024-01-27T03:11:58;9.20;;;2.65;;
80332;SDS011;69652;51.864;-2.246;2024-01-27T03:14:23;10.60;;;3.00;;
80332;SDS011;69652;51.864;-2.246;2024-01-27T03:16:49;13.25;;;4.28;;
80332;SDS011;69652;51.864;-2.246;2024-01-27T03:19:15;13.00;;;3.25;;
80332;SDS011;69652;51.864;-2.246;2024-01-27T03:21:41;10.32;;;2.67;;
80332;SDS011;69652;51.864;-2.246;2024-01-27T03:24:07;12.10;;;2.95;;
80332;SDS011;69652;51.864;-2.246;2024-01-27T03:26:32;8.88;;;3.05;;
80332;SDS011;69652;51.864;-2.246;2024-01-27T03:28:58;10.57;;;3.35;;
80332;SDS011;69652;51.864;-2.246;2024-01-27T03:31:29;10.18;;;2.72;;
80332;SDS011;69652;51.864;-2.246;2024-01-27T03:33:56;8.75;;;2.95;;
80332;SDS011;69652;51.864;-2.246;2024-01-27T03:36:21;10.40;;;2.60;;
80332;SDS011;69652;51.864;-2.246;2024-01-27T03:38:47;12.85;;;2.63;;
80332;SDS011;69652;51.864;-2.246;2024-01-27T03:41:13;17.10;;;2.95;;
80332;SDS011;69652;51.864;-2.246;2024-01-27T03:43:38;8.60;;;2.33;;
80332;SDS011;69652;51.864;-2.246;2024-01-27T03:46:04;10.73;;;2.63;;
80332;SDS011;69652;51.864;-2.246;2024-01-27T03:48:29;12.02;;;3.13;;
80332;SDS011;69652;51.864;-2.246;2024-01-27T03:50:55;7.97;;;2.33;;
80332;SDS011;69652;51.864;-2.246;2024-01-27T03:53:21;9.70;;;3.00;;
80332;SDS011;69652;51.864;-2.246;2024-01-27T03:55:46;9.32;;;2.60;;
80332;SDS011;69652;51.864;-2.246;2024-01-27T03:58:12;7.80;;;2.10;;
80332;SDS011;69652;51.864;-2.246;2024-01-27T04:00:38;10.20;;;3.13;;
80332;SDS011;69652;51.864;-2.246;2024-01-27T04:03:03;7.05;;;2.47;;
80332;SDS011;69652;51.864;-2.246;2024-01-27T04:05:29;8.57;;;2.10;;
80332;SDS011;69652;51.864;-2.246;2024-01-27T04:07:55;6.95;;;2.13;;
80332;SDS011;69652;51.864;-2.246;2024-01-27T04:10:21;9.88;;;2.33;;
80332;SDS011;69652;51.864;-2.246;2024-01-27T04:12:47;11.65;;;3.50;;
80332;SDS011;69652;51.864;-2.246;2024-01-27T04:15:13;8.77;;;2.60;;
80332;SDS011;69652;51.864;-2.246;2024-01-27T04:17:39;7.05;;;1.95;;
80332;SDS011;69652;51.864;-2.246;2024-01-27T04:20:06;9.15;;;2.58;;
80332;SDS011;69652;51.864;-2.246;2024-01-27T04:22:33;5.63;;;1.88;;
80332;SDS011;69652;51.864;-2.246;2024-01-27T04:24:59;8.68;;;2.40;;
80332;SDS011;69652;51.864;-2.246;2024-01-27T04:27:26;7.07;;;1.92;;
80332;SDS011;69652;51.864;-2.246;2024-01-27T04:29:52;5.45;;;1.70;;
80332;SDS011;69652;51.864;-2.246;2024-01-27T04:32:18;10.27;;;2.40;;
80332;SDS011;69652;51.864;-2.246;2024-01-27T04:34:43;5.93;;;2.50;;
80332;SDS011;69652;51.864;-2.246;2024-01-27T04:37:09;12.35;;;2.47;;
80332;SDS011;69652;51.864;-2.246;2024-01-27T04:39:35;6.10;;;1.85;;
80332;SDS011;69652;51.864;-2.246;2024-01-27T04:42:00;7.20;;;2.38;;
80332;SDS011;69652;51.864;-2.246;2024-01-27T04:44:26;12.00;;;2.67;;
80332;SDS011;69652;51.864;-2.246;2024-01-27T04:46:52;6.10;;;2.08;;
80332;SDS011;69652;51.864;-2.246;2024-01-27T04:49:17;8.35;;;2.03;;
80332;SDS011;69652;51.864;-2.246;2024-01-27T04:51:43;11.80;;;2.05;;
80332;SDS011;69652;51.864;-2.246;2024-01-27T04:54:09;4.40;;;2.00;;
80332;SDS011;69652;51.864;-2.246;2024-01-27T04:56:35;6.97;;;2.08;;
80332;SDS011;69652;51.864;-2.246;2024-01-27T04:59:02;4.50;;;2.03;;
80332;SDS011;69652;51.864;-2.246;2024-01-27T05:01:27;8.52;;;2.03;;
80332;SDS011;69652;51.864;-2.246;2024-01-27T05:03:53;9.30;;;2.67;;
80332;SDS011;69652;51.864;-2.246;2024-01-27T05:06:19;11.82;;;2.50;;
80332;SDS011;69652;51.864;-2.246;2024-01-27T05:08:44;10.75;;;2.10;;
80332;SDS011;69652;51.864;-2.246;2024-01-27T05:11:10;5.90;;;2.10;;
80332;SDS011;69652;51.864;-2.246;2024-01-27T05:13:36;10.13;;;2.05;;
80332;SDS011;69652;51.864;-2.246;2024-01-27T05:16:02;11.23;;;2.53;;
80332;SDS011;69652;51.864;-2.246;2024-01-27T05:18:28;13.20;;;2.67;;
80332;SDS011;69652;51.864;-2.246;2024-01-27T05:20:54;20.30;;;2.97;;
80332;SDS011;69652;51.864;-2.246;2024-01-27T05:23:19;10.07;;;2.15;;
80332;SDS011;69652;51.864;-2.246;2024-01-27T05:25:45;10.90;;;2.38;;
80332;SDS011;69652;51.864;-2.246;2024-01-27T05:28:11;10.90;;;2.75;;
80332;SDS011;69652;51.864;-2.246;2024-01-27T05:30:36;9.20;;;2.50;;
80332;SDS011;69652;51.864;-2.246;2024-01-27T05:33:02;10.70;;;3.17;;
80332;SDS011;69652;51.864;-2.246;2024-01-27T05:35:27;11.25;;;3.00;;
80332;SDS011;69652;51.864;-2.246;2024-01-27T05:37:53;11.75;;;3.03;;
80332;SDS011;69652;51.864;-2.246;2024-01-27T05:40:19;5.47;;;2.25;;
80332;SDS011;69652;51.864;-2.246;2024-01-27T05:42:44;8.23;;;2.53;;
80332;SDS011;69652;51.864;-2.246;2024-01-27T05:45:10;10.20;;;2.50;;
80332;SDS011;69652;51.864;-2.246;2024-01-27T05:47:36;10.68;;;2.65;;
80332;SDS011;69652;51.864;-2.246;2024-01-27T05:50:02;15.68;;;2.88;;
80332;SDS011;69652;51.864;-2.246;2024-01-27T05:52:28;8.68;;;2.55;;
80332;SDS011;69652;51.864;-2.246;2024-01-27T05:54:54;11.27;;;3.33;;
80332;SDS011;69652;51.864;-2.246;2024-01-27T05:57:20;9.45;;;2.00;;
80332;SDS011;69652;51.864;-2.246;2024-01-27T05:59:45;10.57;;;2.72;;
80332;SDS011;69652;51.864;-2.246;2024-01-27T06:02:11;10.88;;;2.00;;
80332;SDS011;69652;51.864;-2.246;2024-01-27T06:04:36;11.60;;;2.58;;
80332;SDS011;69652;51.864;-2.246;2024-01-27T06:07:02;13.48;;;3.13;;
80332;SDS011;69652;51.864;-2.246;2024-01-27T06:09:28;8.52;;;2.38;;
80332;SDS011;69652;51.864;-2.246;2024-01-27T06:11:53;11.00;;;3.08;;
80332;SDS011;69652;51.864;-2.246;2024-01-27T06:14:19;5.93;;;2.22;;
80332;SDS011;69652;51.864;-2.246;2024-01-27T06:16:44;11.65;;;3.13;;
80332;SDS011;69652;51.864;-2.246;2024-01-27T06:19:10;9.77;;;2.10;;
80332;SDS011;69652;51.864;-2.246;2024-01-27T06:21:36;7.53;;;2.15;;
80332;SDS011;69652;51.864;-2.246;2024-01-27T06:24:01;8.15;;;1.98;;
80332;SDS011;69652;51.864;-2.246;2024-01-27T06:26:27;7.25;;;2.28;;
80332;SDS011;69652;51.864;-2.246;2024-01-27T06:28:52;10.55;;;2.10;;
80332;SDS011;69652;51.864;-2.246;2024-01-27T06:31:18;9.02;;;2.65;;
80332;SDS011;69652;51.864;-2.246;2024-01-27T06:33:43;6.32;;;1.92;;
80332;SDS011;69652;51.864;-2.246;2024-01-27T06:36:09;9.27;;;2.10;;
80332;SDS011;69652;51.864;-2.246;2024-01-27T06:38:36;9.35;;;3.38;;
80332;SDS011;69652;51.864;-2.246;2024-01-27T06:41:02;8.77;;;2.88;;
80332;SDS011;69652;51.864;-2.246;2024-01-27T06:43:28;4.70;;;1.77;;
80332;SDS011;69652;51.864;-2.246;2024-01-27T06:45:54;2.95;;;1.33;;
80332;SDS011;69652;51.864;-2.246;2024-01-27T06:48:22;4.65;;;1.70;;
80332;SDS011;69652;51.864;-2.246;2024-01-27T06:50:50;10.50;;;2.03;;
80332;SDS011;69652;51.864;-2.246;2024-01-27T06:53:16;4.95;;;1.90;;
80332;SDS011;69652;51.864;-2.246;2024-01-27T06:55:42;8.95;;;2.22;;
80332;SDS011;69652;51.864;-2.246;2024-01-27T06:58:08;7.07;;;2.20;;
80332;SDS011;69652;51.864;-2.246;2024-01-27T07:00:33;6.15;;;2.13;;
80332;SDS011;69652;51.864;-2.246;2024-01-27T07:02:59;5.63;;;2.42;;
80332;SDS011;69652;51.864;-2.246;2024-01-27T07:05:24;6.13;;;1.88;;
80332;SDS011;69652;51.864;-2.246;2024-01-27T07:07:51;7.13;;;2.80;;
80332;SDS011;69652;51.864;-2.246;2024-01-27T07:10:16;5.95;;;2.00;;
80332;SDS011;69652;51.864;-2.246;2024-01-27T07:12:42;15.25;;;3.00;;
80332;SDS011;69652;51.864;-2.246;2024-01-27T07:15:07;7.03;;;2.20;;
80332;SDS011;69652;51.864;-2.246;2024-01-27T07:17:33;7.22;;;1.98;;
80332;SDS011;69652;51.864;-2.246;2024-01-27T07:19:59;3.95;;;1.63;;
80332;SDS011;69652;51.864;-2.246;2024-01-27T07:22:24;8.35;;;2.47;;
80332;SDS011;69652;51.864;-2.246;2024-01-27T07:24:50;10.02;;;2.85;;
80332;SDS011;69652;51.864;-2.246;2024-01-27T07:27:16;4.63;;;2.13;;
80332;SDS011;69652;51.864;-2.246;2024-01-27T07:29:43;7.88;;;2.45;;
80332;SDS011;69652;51.864;-2.246;2024-01-27T07:32:08;6.43;;;2.17;;
80332;SDS011;69652;51.864;-2.246;2024-01-27T07:34:44;5.95;;;2.00;;
80332;SDS011;69652;51.864;-2.246;2024-01-27T07:37:10;10.23;;;2.60;;
80332;SDS011;69652;51.864;-2.246;2024-01-27T07:39:35;9.43;;;2.55;;
80332;SDS011;69652;51.864;-2.246;2024-01-27T07:42:01;5.28;;;1.80;;
80332;SDS011;69652;51.864;-2.246;2024-01-27T07:44:26;5.72;;;1.90;;
80332;SDS011;69652;51.864;-2.246;2024-01-27T07:46:52;5.53;;;2.22;;
80332;SDS011;69652;51.864;-2.246;2024-01-27T07:49:18;6.05;;;2.10;;
80332;SDS011;69652;51.864;-2.246;2024-01-27T07:51:44;6.32;;;2.65;;
80332;SDS011;69652;51.864;-2.246;2024-01-27T07:54:09;5.05;;;1.80;;
80332;SDS011;69652;51.864;-2.246;2024-01-27T07:56:35;8.05;;;2.17;;
80332;SDS011;69652;51.864;-2.246;2024-01-27T07:59:01;5.57;;;2.30;;
80332;SDS011;69652;51.864;-2.246;2024-01-27T08:01:26;6.57;;;2.17;;
80332;SDS011;69652;51.864;-2.246;2024-01-27T08:03:52;8.98;;;2.22;;
80332;SDS011;69652;51.864;-2.246;2024-01-27T08:06:18;5.60;;;1.90;;
80332;SDS011;69652;51.864;-2.246;2024-01-27T08:08:47;8.02;;;2.00;;
80332;SDS011;69652;51.864;-2.246;2024-01-27T08:11:14;8.70;;;1.98;;
80332;SDS011;69652;51.864;-2.246;2024-01-27T08:13:40;5.55;;;1.95;;
80332;SDS011;69652;51.864;-2.246;2024-01-27T08:16:07;6.97;;;2.55;;
80332;SDS011;69652;51.864;-2.246;2024-01-27T08:18:35;8.27;;;2.35;;
80332;SDS011;69652;51.864;-2.246;2024-01-27T08:21:02;11.70;;;2.60;;
80332;SDS011;69652;51.864;-2.246;2024-01-27T08:23:28;3.15;;;1.48;;
80332;SDS011;69652;51.864;-2.246;2024-01-27T08:25:54;5.55;;;1.75;;
80332;SDS011;69652;51.864;-2.246;2024-01-27T08:28:19;5.90;;;2.00;;
80332;SDS011;69652;51.864;-2.246;2024-01-27T08:30:45;8.32;;;2.00;;
80332;SDS011;69652;51.864;-2.246;2024-01-27T08:33:11;5.57;;;1.95;;
80332;SDS011;69652;51.864;-2.246;2024-01-27T08:35:36;6.72;;;2.17;;
80332;SDS011;69652;51.864;-2.246;2024-01-27T08:38:02;6.88;;;2.53;;
80332;SDS011;69652;51.864;-2.246;2024-01-27T08:40:29;6.18;;;2.17;;
80332;SDS011;69652;51.864;-2.246;2024-01-27T08:42:54;7.88;;;2.45;;
80332;SDS011;69652;51.864;-2.246;2024-01-27T08:45:20;12.43;;;2.75;;
80332;SDS011;69652;51.864;-2.246;2024-01-27T08:47:45;8.30;;;2.35;;
80332;SDS011;69652;51.864;-2.246;2024-01-27T08:50:11;8.20;;;2.10;;
80332;SDS011;69652;51.864;-2.246;2024-01-27T08:52:36;4.97;;;1.70;;
80332;SDS011;69652;51.864;-2.246;2024-01-27T08:55:02;7.53;;;1.88;;
80332;SDS011;69652;51.864;-2.246;2024-01-27T08:57:28;8.80;;;2.42;;
80332;SDS011;69652;51.864;-2.246;2024-01-27T08:59:53;10.20;;;2.38;;
80332;SDS011;69652;51.864;-2.246;2024-01-27T09:02:19;11.00;;;2.60;;
80332;SDS011;69652;51.864;-2.246;2024-01-27T09:04:44;13.80;;;3.08;;
80332;SDS011;69652;51.864;-2.246;2024-01-27T09:07:11;11.32;;;2.65;;
80332;SDS011;69652;51.864;-2.246;2024-01-27T09:09:37;7.82;;;2.15;;
80332;SDS011;69652;51.864;-2.246;2024-01-27T09:12:04;5.47;;;1.90;;
80332;SDS011;69652;51.864;-2.246;2024-01-27T09:14:30;6.70;;;2.28;;
80332;SDS011;69652;51.864;-2.246;2024-01-27T09:16:56;9.85;;;2.72;;
80332;SDS011;69652;51.864;-2.246;2024-01-27T09:19:21;6.88;;;2.67;;
80332;SDS011;69652;51.864;-2.246;2024-01-27T09:21:47;7.80;;;2.10;;
80332;SDS011;69652;51.864;-2.246;2024-01-27T09:24:13;6.85;;;1.92;;
80332;SDS011;69652;51.864;-2.246;2024-01-27T09:26:38;9.43;;;2.58;;
80332;SDS011;69652;51.864;-2.246;2024-01-27T09:29:04;7.57;;;1.98;;
80332;SDS011;69652;51.864;-2.246;2024-01-27T09:31:29;6.88;;;2.20;;
80332;SDS011;69652;51.864;-2.246;2024-01-27T09:33:55;11.38;;;2.58;;
80332;SDS011;69652;51.864;-2.246;2024-01-27T09:36:21;11.18;;;2.50;;
80332;SDS011;69652;51.864;-2.246;2024-01-27T09:38:47;7.65;;;2.08;;
80332;SDS011;69652;51.864;-2.246;2024-01-27T09:41:13;8.73;;;2.25;;
80332;SDS011;69652;51.864;-2.246;2024-01-27T09:43:43;4.72;;;1.65;;
80332;SDS011;69652;51.864;-2.246;2024-01-27T09:46:17;8.20;;;3.20;;
80332;SDS011;69652;51.864;-2.246;2024-01-27T09:48:43;5.68;;;1.60;;
80332;SDS011;69652;51.864;-2.246;2024-01-27T09:51:10;4.35;;;1.60;;
80332;SDS011;69652;51.864;-2.246;2024-01-27T09:53:36;3.75;;;1.95;;
80332;SDS011;69652;51.864;-2.246;2024-01-27T09:56:02;5.82;;;1.90;;
80332;SDS011;69652;51.864;-2.246;2024-01-27T09:58:31;8.77;;;2.08;;
80332;SDS011;69652;51.864;-2.246;2024-01-27T10:00:58;8.15;;;2.47;;
80332;SDS011;69652;51.864;-2.246;2024-01-27T10:03:25;7.35;;;2.95;;
80332;SDS011;69652;51.864;-2.246;2024-01-27T10:05:56;6.15;;;2.08;;
80332;SDS011;69652;51.864;-2.246;2024-01-27T10:08:22;7.32;;;1.95;;
80332;SDS011;69652;51.864;-2.246;2024-01-27T10:10:53;6.05;;;2.10;;
80332;SDS011;69652;51.864;-2.246;2024-01-27T10:13:22;12.87;;;2.30;;
80332;SDS011;69652;51.864;-2.246;2024-01-27T10:18:30;7.65;;;2.90;;
80332;SDS011;69652;51.864;-2.246;2024-01-27T10:20:57;6.90;;;2.00;;
80332;SDS011;69652;51.864;-2.246;2024-01-27T10:23:23;9.45;;;2.33;;
80332;SDS011;69652;51.864;-2.246;2024-01-27T10:25:49;31.20;;;11.20;;
80332;SDS011;69652;51.864;-2.246;2024-01-27T10:28:16;5.05;;;1.90;;
80332;SDS011;69652;51.864;-2.246;2024-01-27T10:30:42;9.65;;;2.92;;
80332;SDS011;69652;51.864;-2.246;2024-01-27T10:33:09;10.05;;;2.55;;
80332;SDS011;69652;51.864;-2.246;2024-01-27T10:35:41;5.45;;;1.55;;
80332;SDS011;69652;51.864;-2.246;2024-01-27T10:38:08;7.50;;;2.28;;
80332;SDS011;69652;51.864;-2.246;2024-01-27T10:40:35;13.05;;;2.63;;
80332;SDS011;69652;51.864;-2.246;2024-01-27T10:43:08;11.48;;;2.60;;
80332;SDS011;69652;51.864;-2.246;2024-01-27T10:45:38;7.97;;;1.92;;
80332;SDS011;69652;51.864;-2.246;2024-01-27T10:48:05;17.98;;;2.65;;
80332;SDS011;69652;51.864;-2.246;2024-01-27T10:50:38;5.97;;;2.40;;
80332;SDS011;69652;51.864;-2.246;2024-01-27T10:53:05;6.38;;;1.92;;
80332;SDS011;69652;51.864;-2.246;2024-01-27T10:55:35;7.43;;;1.83;;
80332;SDS011;69652;51.864;-2.246;2024-01-27T10:58:03;12.68;;;2.25;;
80332;SDS011;69652;51.864;-2.246;2024-01-27T11:00:29;7.50;;;1.70;;
80332;SDS011;69652;51.864;-2.246;2024-01-27T11:02:58;9.30;;;2.92;;
80332;SDS011;69652;51.864;-2.246;2024-01-27T11:05:29;16.73;;;2.95;;
80332;SDS011;69652;51.864;-2.246;2024-01-27T11:07:57;7.22;;;2.08;;
80332;SDS011;69652;51.864;-2.246;2024-01-27T11:10:24;15.48;;;2.58;;
80332;SDS011;69652;51.864;-2.246;2024-01-27T11:12:52;9.68;;;1.88;;
80332;SDS011;69652;51.864;-2.246;2024-01-27T11:15:20;8.63;;;1.77;;
80332;SDS011;69652;51.864;-2.246;2024-01-27T11:17:46;8.55;;;1.90;;
80332;SDS011;69652;51.864;-2.246;2024-01-27T11:20:13;7.22;;;1.60;;
80332;SDS011;69652;51.864;-2.246;2024-01-27T11:22:41;8.82;;;2.17;;
80332;SDS011;69652;51.864;-2.246;2024-01-27T11:27:38;5.68;;;2.17;;
80332;SDS011;69652;51.864;-2.246;2024-01-27T11:30:28;9.70;;;2.17;;
80332;SDS011;69652;51.864;-2.246;2024-01-27T11:32:55;6.53;;;1.77;;
80332;SDS011;69652;51.864;-2.246;2024-01-27T11:35:22;9.25;;;1.80;;
80332;SDS011;69652;51.864;-2.246;2024-01-27T11:37:49;7.97;;;2.10;;
80332;SDS011;69652;51.864;-2.246;2024-01-27T11:40:15;7.57;;;1.95;;
80332;SDS011;69652;51.864;-2.246;2024-01-27T11:42:41;8.73;;;1.38;;
80332;SDS011;69652;51.864;-2.246;2024-01-27T11:45:10;10.07;;;2.33;;
80332;SDS011;69652;51.864;-2.246;2024-01-27T11:47:36;8.30;;;2.08;;
80332;SDS011;69652;51.864;-2.246;2024-01-27T11:50:01;4.05;;;1.52;;
80332;SDS011;69652;51.864;-2.246;2024-01-27T11:52:28;9.30;;;1.55;;
80332;SDS011;69652;51.864;-2.246;2024-01-27T11:54:58;4.50;;;1.80;;
80332;SDS011;69652;51.864;-2.246;2024-01-27T11:57:24;5.40;;;1.77;;
80332;SDS011;69652;51.864;-2.246;2024-01-27T11:59:51;7.78;;;2.15;;
80332;SDS011;69652;51.864;-2.246;2024-01-27T12:02:17;5.57;;;1.70;;
80332;SDS011;69652;51.864;-2.246;2024-01-27T12:04:43;8.48;;;1.85;;
80332;SDS011;69652;51.864;-2.246;2024-01-27T12:07:09;6.95;;;1.73;;
80332;SDS011;69652;51.864;-2.246;2024-01-27T12:09:35;10.75;;;1.95;;
80332;SDS011;69652;51.864;-2.246;2024-01-27T12:12:02;7.53;;;1.52;;
80332;SDS011;69652;51.864;-2.246;2024-01-27T12:14:40;11.25;;;2.03;;
80332;SDS011;69652;51.864;-2.246;2024-01-27T12:17:09;8.35;;;2.20;;
80332;SDS011;69652;51.864;-2.246;2024-01-27T12:19:35;11.20;;;2.72;;
80332;SDS011;69652;51.864;-2.246;2024-01-27T12:22:02;11.93;;;2.20;;
80332;SDS011;69652;51.864;-2.246;2024-01-27T12:24:28;11.07;;;1.92;;
80332;SDS011;69652;51.864;-2.246;2024-01-27T12:26:55;11.93;;;2.92;;
80332;SDS011;69652;51.864;-2.246;2024-01-27T12:29:22;11.25;;;4.82;;
80332;SDS011;69652;51.864;-2.246;2024-01-27T12:31:48;18.30;;;2.63;;
80332;SDS011;69652;51.864;-2.246;2024-01-27T12:34:14;9.25;;;2.35;;
80332;SDS011;69652;51.864;-2.246;2024-01-27T12:36:43;10.25;;;2.30;;
80332;SDS011;69652;51.864;-2.246;2024-01-27T12:39:09;9.13;;;2.30;;
80332;SDS011;69652;51.864;-2.246;2024-01-27T12:41:35;8.57;;;2.30;;
80332;SDS011;69652;51.864;-2.246;2024-01-27T12:44:02;9.55;;;2.35;;
80332;SDS011;69652;51.864;-2.246;2024-01-27T12:46:28;12.00;;;2.25;;
80332;SDS011;69652;51.864;-2.246;2024-01-27T12:48:53;14.70;;;2.30;;
80332;SDS011;69652;51.864;-2.246;2024-01-27T12:51:19;6.20;;;1.77;;
80332;SDS011;69652;51.864;-2.246;2024-01-27T12:53:45;9.48;;;1.75;;
80332;SDS011;69652;51.864;-2.246;2024-01-27T12:56:12;7.85;;;2.55;;
80332;SDS011;69652;51.864;-2.246;2024-01-27T12:58:40;13.45;;;3.03;;
80332;SDS011;69652;51.864;-2.246;2024-01-27T13:01:06;7.22;;;1.92;;
80332;SDS011;69652;51.864;-2.246;2024-01-27T13:03:33;7.95;;;2.58;;
80332;SDS011;69652;51.864;-2.246;2024-01-27T13:05:59;10.02;;;2.20;;
80332;SDS011;69652;51.864;-2.246;2024-01-27T13:08:26;7.82;;;1.98;;
80332;SDS011;69652;51.864;-2.246;2024-01-27T13:10:52;7.32;;;1.85;;
80332;SDS011;69652;51.864;-2.246;2024-01-27T13:13:17;8.57;;;2.30;;
80332;SDS011;69652;51.864;-2.246;2024-01-27T13:15:44;12.88;;;2.67;;
80332;SDS011;69652;51.864;-2.246;2024-01-27T13:18:10;18.75;;;3.85;;
80332;SDS011;69652;51.864;-2.246;2024-01-27T13:20:36;10.20;;;2.75;;
80332;SDS011;69652;51.864;-2.246;2024-01-27T13:23:02;8.32;;;2.30;;
80332;SDS011;69652;51.864;-2.246;2024-01-27T13:25:27;9.05;;;1.95;;
80332;SDS011;69652;51.864;-2.246;2024-01-27T13:27:53;7.57;;;2.10;;
80332;SDS011;69652;51.864;-2.246;2024-01-27T13:30:19;12.52;;;1.60;;
80332;SDS011;69652;51.864;-2.246;2024-01-27T13:32:44;13.82;;;2.10;;
80332;SDS011;69652;51.864;-2.246;2024-01-27T13:35:10;8.75;;;2.00;;
80332;SDS011;69652;51.864;-2.246;2024-01-27T13:37:36;10.57;;;2.22;;
80332;SDS011;69652;51.864;-2.246;2024-01-27T13:40:03;6.57;;;2.35;;
80332;SDS011;69652;51.864;-2.246;2024-01-27T13:42:30;10.43;;;2.45;;
80332;SDS011;69652;51.864;-2.246;2024-01-27T13:44:56;10.02;;;2.55;;
80332;SDS011;69652;51.864;-2.246;2024-01-27T13:47:23;7.47;;;2.90;;
80332;SDS011;69652;51.864;-2.246;2024-01-27T13:49:49;12.02;;;2.63;;
80332;SDS011;69652;51.864;-2.246;2024-01-27T13:52:15;11.05;;;2.90;;
80332;SDS011;69652;51.864;-2.246;2024-01-27T13:54:40;14.32;;;3.67;;
80332;SDS011;69652;51.864;-2.246;2024-01-27T13:57:06;13.23;;;3.90;;
80332;SDS011;69652;51.864;-2.246;2024-01-27T13:59:33;11.15;;;2.10;;
80332;SDS011;69652;51.864;-2.246;2024-01-27T14:01:59;9.85;;;2.95;;
80332;SDS011;69652;51.864;-2.246;2024-01-27T14:04:24;9.48;;;2.28;;
80332;SDS011;69652;51.864;-2.246;2024-01-27T14:06:51;8.38;;;1.77;;
80332;SDS011;69652;51.864;-2.246;2024-01-27T14:09:20;6.38;;;1.67;;
80332;SDS011;69652;51.864;-2.246;2024-01-27T14:11:46;9.38;;;2.53;;
80332;SDS011;69652;51.864;-2.246;2024-01-27T14:14:12;9.40;;;2.15;;
80332;SDS011;69652;51.864;-2.246;2024-01-27T14:16:37;8.50;;;2.00;;
80332;SDS011;69652;51.864;-2.246;2024-01-27T14:19:03;11.63;;;2.10;;
80332;SDS011;69652;51.864;-2.246;2024-01-27T14:21:30;29.58;;;18.13;;
80332;SDS011;69652;51.864;-2.246;2024-01-27T14:23:57;13.63;;;4.78;;
80332;SDS011;69652;51.864;-2.246;2024-01-27T14:26:27;12.32;;;2.25;;
80332;SDS011;69652;51.864;-2.246;2024-01-27T14:28:54;7.35;;;1.90;;